createdAt,value
2018-05-17T00:00:14.923Z,5.90
2018-05-17T00:01:14.744Z,6.00
2018-05-17T00:02:14.874Z,6.10
2018-05-17T00:03:14.768Z,5.40
2018-05-17T00:04:14.791Z,6.20
2018-05-17T00:05:14.958Z,5.60
2018-05-17T00:06:14.809Z,5.20
2018-05-17T00:07:14.948Z,5.40
2018-05-17T00:08:14.853Z,5.00
2018-05-17T00:09:14.862Z,5.20
2018-05-17T00:10:15.148Z,5.00
2018-05-17T00:11:14.891Z,4.80
2018-05-17T00:12:14.900Z,5.40
2018-05-17T00:13:14.914Z,5.00
2018-05-17T00:14:15.056Z,5.10
2018-05-17T00:15:15.224Z,4.90
2018-05-17T00:16:15.085Z,4.90
2018-05-17T00:17:14.973Z,4.50
2018-05-17T00:18:14.997Z,4.50
2018-05-17T00:19:15.014Z,4.10
2018-05-17T00:20:15.296Z,4.50
2018-05-17T00:21:15.032Z,4.80
2018-05-17T00:22:15.174Z,4.50
2018-05-17T00:23:15.192Z,5.20
2018-05-17T00:24:15.083Z,5.00
2018-05-17T00:25:15.099Z,4.90
2018-05-17T00:26:15.435Z,4.80
2018-05-17T00:27:15.246Z,4.50
2018-05-17T00:28:15.144Z,4.50
2018-05-17T00:29:15.159Z,5.90
2018-05-17T00:30:15.291Z,6.90
2018-05-17T00:31:15.334Z,7.60
2018-05-17T00:32:15.208Z,8.20
2018-05-17T00:33:15.218Z,15.00
2018-05-17T00:34:15.226Z,13.20
2018-05-17T00:35:15.370Z,11.70
2018-05-17T00:36:15.253Z,10.80
2018-05-17T00:37:15.546Z,8.70
2018-05-17T00:38:15.285Z,11.90
2018-05-17T00:39:15.300Z,19.00
2018-05-17T00:40:15.317Z,17.50
2018-05-17T00:41:15.337Z,14.50
2018-05-17T00:42:15.618Z,27.40
2018-05-17T00:43:15.355Z,23.70
2018-05-17T00:44:15.387Z,21.00
2018-05-17T00:45:15.400Z,17.60
2018-05-17T00:46:15.417Z,33.20
2018-05-17T00:47:15.613Z,24.70
2018-05-17T00:48:15.560Z,21.10
2018-05-17T00:49:15.443Z,25.90
2018-05-17T00:50:15.467Z,20.80
2018-05-17T00:51:15.473Z,16.70
2018-05-17T00:52:15.510Z,14.70
2018-05-17T00:53:15.660Z,16.00
2018-05-17T00:54:15.645Z,19.30
2018-05-17T00:55:15.537Z,18.00
2018-05-17T00:56:15.672Z,23.60
2018-05-17T00:57:15.687Z,27.00
2018-05-17T00:58:15.736Z,33.90
2018-05-17T00:59:15.713Z,29.70
2018-05-17T01:00:15.609Z,29.80
2018-05-17T01:01:15.628Z,26.60
2018-05-17T01:02:15.634Z,24.60
2018-05-17T01:03:15.919Z,21.90
2018-05-17T01:04:15.660Z,21.40
2018-05-17T01:05:15.804Z,19.80
2018-05-17T01:06:15.692Z,19.60
2018-05-17T01:07:15.826Z,14.40
2018-05-17T01:08:15.720Z,14.60
2018-05-17T01:09:15.877Z,19.30
2018-05-17T01:10:15.869Z,25.80
2018-05-17T01:11:15.756Z,28.60
2018-05-17T01:12:15.776Z,22.60
2018-05-17T01:13:15.910Z,21.40
2018-05-17T01:14:16.028Z,25.80
2018-05-17T01:15:15.939Z,44.30
2018-05-17T01:16:15.823Z,43.60
2018-05-17T01:17:15.853Z,24.80
2018-05-17T01:18:15.865Z,26.70
2018-05-17T01:19:15.965Z,18.60
2018-05-17T01:20:16.010Z,42.20
2018-05-17T01:21:15.903Z,48.50
2018-05-17T01:22:16.035Z,50.90
2018-05-17T01:23:15.930Z,44.30
2018-05-17T01:24:15.987Z,21.20
2018-05-17T01:25:16.077Z,19.50
2018-05-17T01:26:16.091Z,20.30
2018-05-17T01:27:16.107Z,22.50
2018-05-17T01:28:16.121Z,20.90
2018-05-17T01:29:16.234Z,9.60
2018-05-17T01:30:16.023Z,8.40
2018-05-17T01:31:16.164Z,6.60
2018-05-17T01:32:16.174Z,8.80
2018-05-17T01:33:16.064Z,10.90
2018-05-17T01:34:16.304Z,11.50
2018-05-17T01:35:16.089Z,9.70
2018-05-17T01:36:16.112Z,8.70
2018-05-17T01:37:16.133Z,6.90
2018-05-17T01:38:16.260Z,6.20
2018-05-17T01:39:16.158Z,6.30
2018-05-17T01:40:16.264Z,6.50
2018-05-17T01:41:16.300Z,6.70
2018-05-17T01:42:16.198Z,6.80
2018-05-17T01:43:16.214Z,7.50
2018-05-17T01:44:16.232Z,7.20
2018-05-17T01:45:16.331Z,6.80
2018-05-17T01:46:16.372Z,6.90
2018-05-17T01:47:16.260Z,6.60
2018-05-17T01:48:16.281Z,6.80
2018-05-17T01:49:16.294Z,9.30
2018-05-17T01:50:16.528Z,8.60
2018-05-17T01:51:16.323Z,9.60
2018-05-17T01:52:16.329Z,8.30
2018-05-17T01:53:16.356Z,7.60
2018-05-17T01:54:16.483Z,9.40
2018-05-17T01:55:16.370Z,10.30
2018-05-17T01:56:16.443Z,9.30
2018-05-17T01:57:16.400Z,8.90
2018-05-17T01:58:16.421Z,9.10
2018-05-17T01:59:16.552Z,9.30
2018-05-17T02:00:16.476Z,8.80
2018-05-17T02:01:16.554Z,8.90
2018-05-17T02:02:16.482Z,10.00
2018-05-17T02:03:16.481Z,9.90
2018-05-17T02:04:16.504Z,8.80
2018-05-17T02:05:16.514Z,8.70
2018-05-17T02:06:16.687Z,8.60
2018-05-17T02:07:16.541Z,9.70
2018-05-17T02:08:16.574Z,9.40
2018-05-17T02:09:16.559Z,8.90
2018-05-17T02:10:16.587Z,8.50
2018-05-17T02:11:16.584Z,8.90
2018-05-17T02:12:16.713Z,10.00
2018-05-17T02:13:16.614Z,9.30
2018-05-17T02:14:16.630Z,8.70
2018-05-17T02:15:16.662Z,9.10
2018-05-17T02:16:16.654Z,8.80
2018-05-17T02:17:16.774Z,8.90
2018-05-17T02:18:16.705Z,9.70
2018-05-17T02:19:16.913Z,9.30
2018-05-17T02:20:16.731Z,9.40
2018-05-17T02:21:16.750Z,9.10
2018-05-17T02:22:16.977Z,9.40
2018-05-17T02:23:16.773Z,10.70
2018-05-17T02:24:16.790Z,10.80
2018-05-17T02:25:16.800Z,10.20
2018-05-17T02:26:16.817Z,9.40
2018-05-17T02:27:16.911Z,11.30
2018-05-17T02:28:16.830Z,9.70
2018-05-17T02:29:16.864Z,9.90
2018-05-17T02:30:16.852Z,9.90
2018-05-17T02:31:16.871Z,9.30
2018-05-17T02:32:16.933Z,9.60
2018-05-17T02:33:16.907Z,10.60
2018-05-17T02:34:17.046Z,9.70
2018-05-17T02:35:16.932Z,9.10
2018-05-17T02:36:17.073Z,7.90
2018-05-17T02:37:17.068Z,6.60
2018-05-17T02:38:17.102Z,5.90
2018-05-17T02:39:16.997Z,6.60
2018-05-17T02:40:17.005Z,6.80
2018-05-17T02:41:17.022Z,6.50
2018-05-17T02:42:17.127Z,6.40
2018-05-17T02:43:17.042Z,6.40
2018-05-17T02:44:17.073Z,6.80
2018-05-17T02:45:17.093Z,7.40
2018-05-17T02:46:17.105Z,6.30
2018-05-17T02:47:17.205Z,6.40
2018-05-17T02:48:17.135Z,6.60
2018-05-17T02:49:17.199Z,6.10
2018-05-17T02:50:17.144Z,5.60
2018-05-17T02:51:17.166Z,5.80
2018-05-17T02:52:17.278Z,5.50
2018-05-17T02:53:17.314Z,5.50
2018-05-17T02:54:17.329Z,5.20
2018-05-17T02:55:17.220Z,5.20
2018-05-17T02:56:17.240Z,5.40
2018-05-17T02:57:17.341Z,5.70
2018-05-17T02:58:17.255Z,5.20
2018-05-17T02:59:17.263Z,5.50
2018-05-17T03:00:17.277Z,5.40
2018-05-17T03:01:17.309Z,5.40
2018-05-17T03:02:17.406Z,6.00
2018-05-17T03:03:17.337Z,5.30
2018-05-17T03:04:17.359Z,5.80
2018-05-17T03:05:17.366Z,5.10
2018-05-17T03:06:17.372Z,5.20
2018-05-17T03:07:17.612Z,4.90
2018-05-17T03:08:17.400Z,5.90
2018-05-17T03:09:17.409Z,4.80
2018-05-17T03:10:17.436Z,5.10
2018-05-17T03:11:17.443Z,5.40
2018-05-17T03:12:17.584Z,5.40
2018-05-17T03:13:17.564Z,5.20
2018-05-17T03:14:17.481Z,4.70
2018-05-17T03:15:17.507Z,4.50
2018-05-17T03:16:17.519Z,4.60
2018-05-17T03:17:17.654Z,4.30
2018-05-17T03:18:17.641Z,4.40
2018-05-17T03:19:17.571Z,4.40
2018-05-17T03:20:17.579Z,4.60
2018-05-17T03:21:17.712Z,4.10
2018-05-17T03:22:17.608Z,4.50
2018-05-17T03:23:17.841Z,4.50
2018-05-17T03:24:17.645Z,4.20
2018-05-17T03:25:17.770Z,4.40
2018-05-17T03:26:17.787Z,4.20
2018-05-17T03:27:17.798Z,4.90
2018-05-17T03:28:17.911Z,4.40
2018-05-17T03:29:17.696Z,4.70
2018-05-17T03:30:17.711Z,4.80
2018-05-17T03:31:17.860Z,4.40
2018-05-17T03:32:17.735Z,5.10
2018-05-17T03:33:17.851Z,4.80
2018-05-17T03:34:17.806Z,4.90
2018-05-17T03:35:17.799Z,5.40
2018-05-17T03:36:17.926Z,5.20
2018-05-17T03:37:17.818Z,4.90
2018-05-17T03:38:17.958Z,5.30
2018-05-17T03:39:17.971Z,5.30
2018-05-17T03:40:17.982Z,6.10
2018-05-17T03:41:17.999Z,5.30
2018-05-17T03:42:18.014Z,5.50
2018-05-17T03:43:18.124Z,5.30
2018-05-17T03:44:17.922Z,5.00
2018-05-17T03:45:17.927Z,5.40
2018-05-17T03:46:17.935Z,5.40
2018-05-17T03:47:17.963Z,5.00
2018-05-17T03:48:18.063Z,5.10
2018-05-17T03:49:17.989Z,5.60
2018-05-17T03:50:17.995Z,4.90
2018-05-17T03:51:18.017Z,5.50
2018-05-17T03:52:18.020Z,5.30
2018-05-17T03:53:18.154Z,6.40
2018-05-17T03:54:18.186Z,6.10
2018-05-17T03:55:18.087Z,5.80
2018-05-17T03:56:18.092Z,6.60
2018-05-17T03:57:18.099Z,6.10
2018-05-17T03:58:18.115Z,5.90
2018-05-17T03:59:18.356Z,5.40
2018-05-17T04:00:18.146Z,5.40
2018-05-17T04:01:18.228Z,5.20
2018-05-17T04:02:18.175Z,5.30
2018-05-17T04:03:18.195Z,5.40
2018-05-17T04:04:18.292Z,7.00
2018-05-17T04:05:18.340Z,6.60
2018-05-17T04:06:18.232Z,6.10
2018-05-17T04:07:18.367Z,5.50
2018-05-17T04:08:18.255Z,5.70
2018-05-17T04:09:18.377Z,5.20
2018-05-17T04:10:18.300Z,6.00
2018-05-17T04:11:18.317Z,6.70
2018-05-17T04:12:18.309Z,6.00
2018-05-17T04:13:18.336Z,5.90
2018-05-17T04:14:18.335Z,6.20
2018-05-17T04:15:18.470Z,6.10
2018-05-17T04:16:18.378Z,5.60
2018-05-17T04:17:18.392Z,5.40
2018-05-17T04:18:18.531Z,5.10
2018-05-17T04:19:18.546Z,6.10
2018-05-17T04:20:18.655Z,5.60
2018-05-17T04:21:18.443Z,6.30
2018-05-17T04:22:18.471Z,5.80
2018-05-17T04:23:18.599Z,5.90
2018-05-17T04:24:18.613Z,5.80
2018-05-17T04:25:18.613Z,5.70
2018-05-17T04:26:18.514Z,6.10
2018-05-17T04:27:18.542Z,6.60
2018-05-17T04:28:18.543Z,7.90
2018-05-17T04:29:18.573Z,8.20
2018-05-17T04:30:18.586Z,10.00
2018-05-17T04:31:18.684Z,11.50
2018-05-17T04:32:18.623Z,11.00
2018-05-17T04:33:18.629Z,12.90
2018-05-17T04:34:18.758Z,12.20
2018-05-17T04:35:18.660Z,13.60
2018-05-17T04:36:18.805Z,12.70
2018-05-17T04:37:18.674Z,10.90
2018-05-17T04:38:18.816Z,12.00
2018-05-17T04:39:18.694Z,10.10
2018-05-17T04:40:18.843Z,8.90
2018-05-17T04:41:18.775Z,8.90
2018-05-17T04:42:18.870Z,9.10
2018-05-17T04:43:18.747Z,9.20
2018-05-17T04:44:18.761Z,8.50
2018-05-17T04:45:18.793Z,8.60
2018-05-17T04:46:18.908Z,6.90
2018-05-17T04:47:18.812Z,6.50
2018-05-17T04:48:18.816Z,7.10
2018-05-17T04:49:18.848Z,7.30
2018-05-17T04:50:18.980Z,7.30
2018-05-17T04:51:19.017Z,7.30
2018-05-17T04:52:18.882Z,6.60
2018-05-17T04:53:18.902Z,6.70
2018-05-17T04:54:18.907Z,6.40
2018-05-17T04:55:18.934Z,6.70
2018-05-17T04:56:19.039Z,6.80
2018-05-17T04:57:18.947Z,6.80
2018-05-17T04:58:18.963Z,6.40
2018-05-17T04:59:18.991Z,7.00
2018-05-17T05:00:18.983Z,6.10
2018-05-17T05:01:19.098Z,6.40
2018-05-17T05:02:19.040Z,6.40
2018-05-17T05:03:19.030Z,6.90
2018-05-17T05:04:19.042Z,6.40
2018-05-17T05:05:19.062Z,7.20
2018-05-17T05:06:19.226Z,7.20
2018-05-17T05:07:19.214Z,7.30
2018-05-17T05:08:19.228Z,7.60
2018-05-17T05:09:19.151Z,7.20
2018-05-17T05:10:19.129Z,7.80
2018-05-17T05:11:19.235Z,7.60
2018-05-17T05:12:19.163Z,8.40
2018-05-17T05:13:19.178Z,9.00
2018-05-17T05:14:19.310Z,8.90
2018-05-17T05:15:19.324Z,9.30
2018-05-17T05:16:19.220Z,8.60
2018-05-17T05:17:19.453Z,8.50
2018-05-17T05:18:19.239Z,8.50
2018-05-17T05:19:19.264Z,9.10
2018-05-17T05:20:19.273Z,8.80
2018-05-17T05:21:19.286Z,8.70
2018-05-17T05:22:19.387Z,8.70
2018-05-17T05:23:19.314Z,8.10
2018-05-17T05:24:19.316Z,9.50
2018-05-17T05:25:19.342Z,8.50
2018-05-17T05:26:19.342Z,8.50
2018-05-17T05:27:19.667Z,8.50
2018-05-17T05:28:19.391Z,7.80
2018-05-17T05:29:19.518Z,8.30
2018-05-17T05:30:19.406Z,8.90
2018-05-17T05:31:19.548Z,8.10
2018-05-17T05:32:19.662Z,8.60
2018-05-17T05:33:19.444Z,8.00
2018-05-17T05:34:19.466Z,8.00
2018-05-17T05:35:19.474Z,7.90
2018-05-17T05:36:19.497Z,7.80
2018-05-17T05:37:19.622Z,7.60
2018-05-17T05:38:19.522Z,7.90
2018-05-17T05:39:19.538Z,8.10
2018-05-17T05:40:19.562Z,7.60
2018-05-17T05:41:19.566Z,7.40
2018-05-17T05:42:19.590Z,7.40
2018-05-17T05:43:19.755Z,7.60
2018-05-17T05:44:19.598Z,7.50
2018-05-17T05:45:19.622Z,7.60
2018-05-17T05:46:19.644Z,8.20
2018-05-17T05:47:19.660Z,7.90
2018-05-17T05:48:19.758Z,8.70
2018-05-17T05:49:19.753Z,9.00
2018-05-17T05:50:19.689Z,9.10
2018-05-17T05:51:19.696Z,9.20
2018-05-17T05:52:19.838Z,9.70
2018-05-17T05:53:19.830Z,9.60
2018-05-17T05:54:19.757Z,10.80
2018-05-17T05:55:19.760Z,11.50
2018-05-17T05:56:19.783Z,11.90
2018-05-17T05:57:19.798Z,11.90
2018-05-17T05:58:19.889Z,12.20
2018-05-17T05:59:19.816Z,12.00
2018-05-17T06:00:19.841Z,12.60
2018-05-17T06:01:19.846Z,13.40
2018-05-17T06:02:19.877Z,13.40
2018-05-17T06:03:19.972Z,12.70
2018-05-17T06:04:20.006Z,13.00
2018-05-17T06:05:19.902Z,12.80
2018-05-17T06:06:19.912Z,12.20
2018-05-17T06:07:19.911Z,13.50
2018-05-17T06:08:20.116Z,14.00
2018-05-17T06:09:19.961Z,13.20
2018-05-17T06:10:19.972Z,12.20
2018-05-17T06:11:19.976Z,11.40
2018-05-17T06:12:19.996Z,12.10
2018-05-17T06:13:20.105Z,10.50
2018-05-17T06:14:20.027Z,10.20
2018-05-17T06:15:20.047Z,9.90
2018-05-17T06:16:20.037Z,10.30
2018-05-17T06:17:20.103Z,10.70
2018-05-17T06:18:20.171Z,10.30
2018-05-17T06:19:20.090Z,11.30
2018-05-17T06:20:20.107Z,11.20
2018-05-17T06:21:20.240Z,11.80
2018-05-17T06:22:20.139Z,11.80
2018-05-17T06:23:20.139Z,13.10
2018-05-17T06:24:20.282Z,12.20
2018-05-17T06:25:20.175Z,13.40
2018-05-17T06:26:20.186Z,13.10
2018-05-17T06:27:20.207Z,14.00
2018-05-17T06:28:20.221Z,14.60
2018-05-17T06:29:20.321Z,15.40
2018-05-17T06:30:20.289Z,15.60
2018-05-17T06:31:20.266Z,16.50
2018-05-17T06:32:20.394Z,16.40
2018-05-17T06:33:20.322Z,17.00
2018-05-17T06:34:20.407Z,16.90
2018-05-17T06:35:20.316Z,16.90
2018-05-17T06:36:20.327Z,17.20
2018-05-17T06:37:20.342Z,18.10
2018-05-17T06:38:20.376Z,18.00
2018-05-17T06:39:20.365Z,19.40
2018-05-17T06:40:20.486Z,18.20
2018-05-17T06:41:20.407Z,19.70
2018-05-17T06:42:20.534Z,20.10
2018-05-17T06:43:20.423Z,19.90
2018-05-17T06:44:20.451Z,20.00
2018-05-17T06:45:20.455Z,21.80
2018-05-17T06:46:20.581Z,20.60
2018-05-17T06:47:20.476Z,21.50
2018-05-17T06:48:20.497Z,22.20
2018-05-17T06:49:20.509Z,23.00
2018-05-17T06:50:20.532Z,21.90
2018-05-17T06:51:20.687Z,23.00
2018-05-17T06:52:20.547Z,23.50
2018-05-17T06:53:20.579Z,22.60
2018-05-17T06:54:20.582Z,20.80
2018-05-17T06:55:20.587Z,19.30
2018-05-17T06:56:20.715Z,18.70
2018-05-17T06:57:20.624Z,18.30
2018-05-17T06:58:20.640Z,17.10
2018-05-17T06:59:20.650Z,16.90
2018-05-17T07:00:20.755Z,17.00
2018-05-17T07:01:20.777Z,16.80
2018-05-17T07:02:20.694Z,16.20
2018-05-17T07:03:20.707Z,16.40
2018-05-17T07:04:20.837Z,16.40
2018-05-17T07:05:20.728Z,16.20
2018-05-17T07:06:20.900Z,16.10
2018-05-17T07:07:20.749Z,16.00
2018-05-17T07:08:20.757Z,16.10
2018-05-17T07:09:20.771Z,15.80
2018-05-17T07:10:20.797Z,15.90
2018-05-17T07:11:20.909Z,15.40
2018-05-17T07:12:20.829Z,15.10
2018-05-17T07:13:20.847Z,16.10
2018-05-17T07:14:20.849Z,16.90
2018-05-17T07:15:20.870Z,16.10
2018-05-17T07:16:20.977Z,16.70
2018-05-17T07:17:20.897Z,16.90
2018-05-17T07:18:21.082Z,17.70
2018-05-17T07:19:20.922Z,17.90
2018-05-17T07:20:20.931Z,17.50
2018-05-17T07:21:21.102Z,18.00
2018-05-17T07:22:20.971Z,19.10
2018-05-17T07:23:20.960Z,19.00
2018-05-17T07:24:20.978Z,20.80
2018-05-17T07:25:21.001Z,20.90
2018-05-17T07:26:21.172Z,20.90
2018-05-17T07:27:21.042Z,22.00
2018-05-17T07:28:21.060Z,20.90
2018-05-17T07:29:21.051Z,20.10
2018-05-17T07:30:21.273Z,20.80
2018-05-17T07:31:21.312Z,21.20
2018-05-17T07:32:21.218Z,21.30
2018-05-17T07:33:21.108Z,21.80
2018-05-17T07:34:21.245Z,20.10
2018-05-17T07:35:21.133Z,21.10
2018-05-17T07:36:21.287Z,21.30
2018-05-17T07:37:21.150Z,21.20
2018-05-17T07:38:21.177Z,20.30
2018-05-17T07:39:21.265Z,20.40
2018-05-17T07:40:21.208Z,18.50
2018-05-17T07:41:21.375Z,17.70
2018-05-17T07:42:21.242Z,18.20
2018-05-17T07:43:21.251Z,19.70
2018-05-17T07:44:21.243Z,19.00
2018-05-17T07:45:21.273Z,17.90
2018-05-17T07:46:21.406Z,18.00
2018-05-17T07:47:21.647Z,17.40
2018-05-17T07:48:21.431Z,17.30
2018-05-17T07:49:21.328Z,17.10
2018-05-17T07:50:21.457Z,17.00
2018-05-17T07:51:21.353Z,17.50
2018-05-17T07:52:21.634Z,17.60
2018-05-17T07:53:21.384Z,16.70
2018-05-17T07:54:21.389Z,17.90
2018-05-17T07:55:21.411Z,17.70
2018-05-17T07:56:21.540Z,15.50
2018-05-17T07:57:21.431Z,15.60
2018-05-17T07:58:21.599Z,16.50
2018-05-17T07:59:21.455Z,16.20
2018-05-17T08:00:21.480Z,16.40
2018-05-17T08:01:21.603Z,17.00
2018-05-17T08:02:21.620Z,17.20
2018-05-17T08:03:21.670Z,17.60
2018-05-17T08:04:21.526Z,16.80
2018-05-17T08:05:21.540Z,17.90
2018-05-17T08:06:21.549Z,19.30
2018-05-17T08:07:21.569Z,20.80
2018-05-17T08:08:21.727Z,19.90
2018-05-17T08:09:21.644Z,19.30
2018-05-17T08:10:21.590Z,20.20
2018-05-17T08:11:21.601Z,19.20
2018-05-17T08:12:21.636Z,19.50
2018-05-17T08:13:21.630Z,19.00
2018-05-17T08:14:21.804Z,19.10
2018-05-17T08:15:21.656Z,17.20
2018-05-17T08:16:21.677Z,17.70
2018-05-17T08:17:21.819Z,17.80
2018-05-17T08:18:21.833Z,18.90
2018-05-17T08:19:21.995Z,18.70
2018-05-17T08:20:21.856Z,18.40
2018-05-17T08:21:21.742Z,18.20
2018-05-17T08:22:21.770Z,17.90
2018-05-17T08:23:21.770Z,17.80
2018-05-17T08:24:21.928Z,17.90
2018-05-17T08:25:21.922Z,18.40
2018-05-17T08:26:21.941Z,16.90
2018-05-17T08:27:21.949Z,17.30
2018-05-17T08:28:21.965Z,18.20
2018-05-17T08:29:22.008Z,18.00
2018-05-17T08:30:21.991Z,18.60
2018-05-17T08:31:22.004Z,18.00
2018-05-17T08:32:22.017Z,18.40
2018-05-17T08:33:21.898Z,18.60
2018-05-17T08:34:22.125Z,18.60
2018-05-17T08:35:21.944Z,18.90
2018-05-17T08:36:22.087Z,18.90
2018-05-17T08:37:21.970Z,19.50
2018-05-17T08:38:21.975Z,19.90
2018-05-17T08:39:22.126Z,19.40
2018-05-17T08:40:22.003Z,21.00
2018-05-17T08:41:22.145Z,20.80
2018-05-17T08:42:22.024Z,20.40
2018-05-17T08:43:22.052Z,21.10
2018-05-17T08:44:22.329Z,20.80
2018-05-17T08:45:22.191Z,21.00
2018-05-17T08:46:22.079Z,21.30
2018-05-17T08:47:22.082Z,22.30
2018-05-17T08:48:22.114Z,23.10
2018-05-17T08:49:22.128Z,23.80
2018-05-17T08:50:22.295Z,24.60
2018-05-17T08:51:22.142Z,24.80
2018-05-17T08:52:22.172Z,25.20
2018-05-17T08:53:22.189Z,26.80
2018-05-17T08:54:22.232Z,26.00
2018-05-17T08:55:22.352Z,27.30
2018-05-17T08:56:22.217Z,25.60
2018-05-17T08:57:22.226Z,27.30
2018-05-17T08:58:22.366Z,25.00
2018-05-17T08:59:22.381Z,25.10
2018-05-17T09:00:22.377Z,24.60
2018-05-17T09:01:22.405Z,24.40
2018-05-17T09:02:22.419Z,24.20
2018-05-17T09:03:22.433Z,24.80
2018-05-17T09:04:22.317Z,24.30
2018-05-17T09:05:22.340Z,25.20
2018-05-17T09:06:22.462Z,25.20
2018-05-17T09:07:22.487Z,25.40
2018-05-17T09:08:22.386Z,26.60
2018-05-17T09:09:22.381Z,24.60
2018-05-17T09:10:22.413Z,26.80
2018-05-17T09:11:22.553Z,25.40
2018-05-17T09:12:22.442Z,25.20
2018-05-17T09:13:22.447Z,26.60
2018-05-17T09:14:22.454Z,27.20
2018-05-17T09:15:22.457Z,25.70
2018-05-17T09:16:22.630Z,27.50
2018-05-17T09:17:22.622Z,26.40
2018-05-17T09:18:22.514Z,26.80
2018-05-17T09:19:22.518Z,28.10
2018-05-17T09:20:22.619Z,28.60
2018-05-17T09:21:22.641Z,28.60
2018-05-17T09:22:22.582Z,28.20
2018-05-17T09:23:22.584Z,28.30
2018-05-17T09:24:22.599Z,27.50
2018-05-17T09:25:22.728Z,28.00
2018-05-17T09:26:22.760Z,28.70
2018-05-17T09:27:22.622Z,29.50
2018-05-17T09:28:22.645Z,28.20
2018-05-17T09:29:22.657Z,28.50
2018-05-17T09:30:22.663Z,28.90
2018-05-17T09:31:22.769Z,28.50
2018-05-17T09:32:22.696Z,28.10
2018-05-17T09:33:22.708Z,27.50
2018-05-17T09:34:22.709Z,28.50
2018-05-17T09:35:22.721Z,29.00
2018-05-17T09:36:22.886Z,30.50
2018-05-17T09:37:22.882Z,30.30
2018-05-17T09:38:22.779Z,28.90
2018-05-17T09:39:22.802Z,30.80
2018-05-17T09:40:22.805Z,30.10
2018-05-17T09:41:22.976Z,28.30
2018-05-17T09:42:22.958Z,28.90
2018-05-17T09:43:22.843Z,30.40
2018-05-17T09:44:22.977Z,29.90
2018-05-17T09:45:22.866Z,28.90
2018-05-17T09:46:23.019Z,28.90
2018-05-17T09:47:22.894Z,27.80
2018-05-17T09:48:22.914Z,26.90
2018-05-17T09:49:22.907Z,25.80
2018-05-17T09:50:22.925Z,24.40
2018-05-17T09:51:23.152Z,27.60
2018-05-17T09:52:22.952Z,28.10
2018-05-17T09:53:23.097Z,27.80
2018-05-17T09:54:23.120Z,27.10
2018-05-17T09:55:23.119Z,26.40
2018-05-17T09:56:23.133Z,26.00
2018-05-17T09:57:23.127Z,26.50
2018-05-17T09:58:23.165Z,25.60
2018-05-17T09:59:23.174Z,26.50
2018-05-17T10:00:23.061Z,26.50
2018-05-17T10:01:23.077Z,25.80
2018-05-17T10:02:23.213Z,26.90
2018-05-17T10:03:23.223Z,26.00
2018-05-17T10:04:23.123Z,23.50
2018-05-17T10:05:23.131Z,24.30
2018-05-17T10:06:23.153Z,24.80
2018-05-17T10:07:23.172Z,24.00
2018-05-17T10:08:23.295Z,24.90
2018-05-17T10:09:23.386Z,22.60
2018-05-17T10:10:23.326Z,21.70
2018-05-17T10:11:23.208Z,21.90
2018-05-17T10:12:23.221Z,21.50
2018-05-17T10:13:23.239Z,20.60
2018-05-17T10:14:23.415Z,20.60
2018-05-17T10:15:23.398Z,18.70
2018-05-17T10:16:23.290Z,18.50
2018-05-17T10:17:23.301Z,18.50
2018-05-17T10:18:23.326Z,19.30
2018-05-17T10:19:23.600Z,21.70
2018-05-17T10:20:23.348Z,22.20
2018-05-17T10:21:23.355Z,28.80
2018-05-17T10:22:23.359Z,40.80
2018-05-17T10:23:23.374Z,42.10
2018-05-17T10:24:23.564Z,49.60
2018-05-17T10:25:23.540Z,49.80
2018-05-17T10:26:23.554Z,49.30
2018-05-17T10:27:23.571Z,46.80
2018-05-17T10:28:23.461Z,51.50
2018-05-17T10:29:23.698Z,45.60
2018-05-17T10:30:23.483Z,46.40
2018-05-17T10:31:23.501Z,46.00
2018-05-17T10:32:23.532Z,45.20
2018-05-17T10:33:23.667Z,45.10
2018-05-17T10:34:23.832Z,42.30
2018-05-17T10:35:23.569Z,47.10
2018-05-17T10:36:23.712Z,45.60
2018-05-17T10:37:23.729Z,42.70
2018-05-17T10:38:23.745Z,37.10
2018-05-17T10:39:23.791Z,37.10
2018-05-17T10:40:23.649Z,31.40
2018-05-17T10:41:23.675Z,26.40
2018-05-17T10:42:23.701Z,26.10
2018-05-17T10:43:23.714Z,23.60
2018-05-17T10:44:23.810Z,23.60
2018-05-17T10:45:23.731Z,25.80
2018-05-17T10:46:23.742Z,22.10
2018-05-17T10:47:23.764Z,18.70
2018-05-17T10:48:23.781Z,18.70
2018-05-17T10:49:23.965Z,17.00
2018-05-17T10:50:23.821Z,16.40
2018-05-17T10:51:23.845Z,14.80
2018-05-17T10:52:23.855Z,13.80
2018-05-17T10:53:23.874Z,13.00
2018-05-17T10:54:24.346Z,14.00
2018-05-17T10:55:23.912Z,12.80
2018-05-17T10:56:24.054Z,11.90
2018-05-17T10:57:23.963Z,10.70
2018-05-17T10:58:23.967Z,9.40
2018-05-17T10:59:24.108Z,8.70
2018-05-17T11:00:24.263Z,9.30
2018-05-17T11:01:24.016Z,9.70
2018-05-17T11:02:24.027Z,8.80
2018-05-17T11:03:24.080Z,9.10
2018-05-17T11:04:24.081Z,8.50
2018-05-17T11:05:24.093Z,6.70
2018-05-17T11:06:24.339Z,7.10
2018-05-17T11:07:24.136Z,6.70
2018-05-17T11:08:24.147Z,7.50
2018-05-17T11:09:24.166Z,7.60
2018-05-17T11:10:24.183Z,7.40
2018-05-17T11:11:24.302Z,6.70
2018-05-17T11:12:24.349Z,7.20
2018-05-17T11:13:24.238Z,7.30
2018-05-17T11:14:24.265Z,8.90
2018-05-17T11:15:24.289Z,7.00
2018-05-17T11:16:24.453Z,5.90
2018-05-17T11:17:24.329Z,6.20
2018-05-17T11:18:24.334Z,7.40
2018-05-17T11:19:24.359Z,6.00
2018-05-17T11:20:24.373Z,7.00
2018-05-17T11:21:24.596Z,7.10
2018-05-17T11:22:24.433Z,6.80
2018-05-17T11:23:24.436Z,6.90
2018-05-17T11:24:24.460Z,7.50
2018-05-17T11:25:24.490Z,7.30
2018-05-17T11:26:24.661Z,7.20
2018-05-17T11:27:24.533Z,7.20
2018-05-17T11:28:24.552Z,7.20
2018-05-17T11:29:24.560Z,8.00
2018-05-17T11:30:24.583Z,8.20
2018-05-17T11:31:24.754Z,8.70
2018-05-17T11:32:24.620Z,9.20
2018-05-17T11:33:24.624Z,9.50
2018-05-17T11:34:24.656Z,8.90
2018-05-17T11:35:24.663Z,9.00
2018-05-17T11:36:24.789Z,8.90
2018-05-17T11:37:24.719Z,8.50
2018-05-17T11:38:24.760Z,8.60
2018-05-17T11:39:24.875Z,9.30
2018-05-17T11:40:24.788Z,8.80
2018-05-17T11:41:25.065Z,8.50
2018-05-17T11:42:24.938Z,9.10
2018-05-17T11:43:24.842Z,8.80
2018-05-17T11:44:24.846Z,8.70
2018-05-17T11:45:24.884Z,9.30
2018-05-17T11:46:25.163Z,8.70
2018-05-17T11:47:24.927Z,9.80
2018-05-17T11:48:24.966Z,9.70
2018-05-17T11:49:24.947Z,10.20
2018-05-17T11:50:25.038Z,10.10
2018-05-17T11:51:25.135Z,9.70
2018-05-17T11:52:25.021Z,9.30
2018-05-17T11:53:25.148Z,9.60
2018-05-17T11:54:25.046Z,9.20
2018-05-17T11:55:25.185Z,10.20
2018-05-17T11:56:25.179Z,10.10
2018-05-17T11:57:25.099Z,9.70
2018-05-17T11:58:25.242Z,8.80
2018-05-17T11:59:25.134Z,8.90
2018-05-17T12:00:25.145Z,9.10
2018-05-17T12:01:25.342Z,9.40
2018-05-17T12:02:25.196Z,8.80
2018-05-17T12:03:25.207Z,8.20
2018-05-17T12:04:25.240Z,8.50
2018-05-17T12:05:25.260Z,7.90
2018-05-17T12:06:25.383Z,8.00
2018-05-17T12:07:25.300Z,7.40
2018-05-17T12:08:25.309Z,6.30
2018-05-17T12:09:25.328Z,7.00
2018-05-17T12:10:25.471Z,6.40
2018-05-17T12:11:25.464Z,6.90
2018-05-17T12:12:25.407Z,6.50
2018-05-17T12:13:25.521Z,6.50
2018-05-17T12:14:25.453Z,7.10
2018-05-17T12:15:25.432Z,7.30
2018-05-17T12:16:25.725Z,7.60
2018-05-17T12:17:25.485Z,7.30
2018-05-17T12:18:25.496Z,7.20
2018-05-17T12:19:25.496Z,7.70
2018-05-17T12:20:25.531Z,7.30
2018-05-17T12:21:25.705Z,7.30
2018-05-17T12:22:25.574Z,6.60
2018-05-17T12:23:25.595Z,7.20
2018-05-17T12:24:25.606Z,6.90
2018-05-17T12:25:25.615Z,7.00
2018-05-17T12:26:25.740Z,6.50
2018-05-17T12:27:25.649Z,6.30
2018-05-17T12:28:25.682Z,5.90
2018-05-17T12:29:25.681Z,6.00
2018-05-17T12:30:25.706Z,6.50
2018-05-17T12:31:25.949Z,5.90
2018-05-17T12:32:25.741Z,7.00
2018-05-17T12:33:25.785Z,7.40
2018-05-17T12:34:25.787Z,7.10
2018-05-17T12:35:25.923Z,6.90
2018-05-17T12:36:25.901Z,6.80
2018-05-17T12:37:25.830Z,6.70
2018-05-17T12:38:25.858Z,6.90
2018-05-17T12:39:25.863Z,6.40
2018-05-17T12:40:25.890Z,8.10
2018-05-17T12:41:26.174Z,8.10
2018-05-17T12:42:25.913Z,7.90
2018-05-17T12:43:25.923Z,9.80
2018-05-17T12:44:25.954Z,8.40
2018-05-17T12:45:25.981Z,7.90
2018-05-17T12:46:26.153Z,7.60
2018-05-17T12:47:26.007Z,7.10
2018-05-17T12:48:26.033Z,8.00
2018-05-17T12:49:26.165Z,7.70
2018-05-17T12:50:26.056Z,8.00
2018-05-17T12:51:26.299Z,7.40
2018-05-17T12:52:26.092Z,7.70
2018-05-17T12:53:26.116Z,7.00
2018-05-17T12:54:26.127Z,7.20
2018-05-17T12:55:26.133Z,7.30
2018-05-17T12:56:26.163Z,6.40
2018-05-17T12:57:26.288Z,6.20
2018-05-17T12:58:26.278Z,5.20
2018-05-17T12:59:26.205Z,6.40
2018-05-17T13:00:26.232Z,5.80
2018-05-17T13:01:26.265Z,6.60
2018-05-17T13:02:26.422Z,5.90
2018-05-17T13:03:26.269Z,5.40
2018-05-17T13:04:26.308Z,5.70
2018-05-17T13:05:26.442Z,6.30